createdAt,value
2018-09-30T00:00:52.808Z,101554.27
2018-09-30T00:03:21.005Z,101551.84
2018-09-30T00:05:49.179Z,101549.84
2018-09-30T00:08:17.397Z,101546.84
2018-09-30T00:10:45.580Z,101536.22
2018-09-30T00:13:13.788Z,101531.32
2018-09-30T00:15:41.981Z,101532.95
2018-09-30T00:18:10.161Z,101526.98
2018-09-30T00:20:38.436Z,101530.72
2018-09-30T00:23:06.744Z,101527.06
2018-09-30T00:25:40.113Z,101524.86
2018-09-30T00:28:08.290Z,101526.41
2018-09-30T00:30:36.510Z,101520.39
2018-09-30T00:33:04.729Z,101516.83
2018-09-30T00:35:32.915Z,101520.86
2018-09-30T00:38:01.104Z,101517.02
2018-09-30T00:40:29.305Z,101515.83
2018-09-30T00:42:57.501Z,101516.50
2018-09-30T00:45:25.700Z,101510.39
2018-09-30T00:47:53.884Z,101504.04
2018-09-30T00:50:22.376Z,101500.45
2018-09-30T00:52:50.587Z,101494.00
2018-09-30T00:55:18.776Z,101497.03
2018-09-30T00:57:46.995Z,101494.71
2018-09-30T01:00:15.200Z,101496.20
2018-09-30T01:02:43.391Z,101485.00
2018-09-30T01:05:11.611Z,101484.73
2018-09-30T01:07:39.818Z,101481.66
2018-09-30T01:10:08.044Z,101480.72
2018-09-30T01:12:36.228Z,101478.27
2018-09-30T01:15:04.439Z,101468.29
2018-09-30T01:17:32.606Z,101464.95
2018-09-30T01:20:00.873Z,101464.88
2018-09-30T01:22:29.003Z,101462.98
2018-09-30T01:24:57.171Z,101457.77
2018-09-30T01:27:25.393Z,101459.98
2018-09-30T01:29:53.577Z,101457.28
2018-09-30T01:32:21.754Z,101459.94
2018-09-30T01:34:49.930Z,101449.75
2018-09-30T01:37:18.111Z,101447.27
2018-09-30T01:39:46.287Z,101446.81
2018-09-30T01:42:14.483Z,101446.27
2018-09-30T01:44:42.672Z,101441.24
2018-09-30T01:47:10.851Z,101441.89
2018-09-30T01:49:39.033Z,101440.55
2018-09-30T01:53:10.459Z,101440.75
2018-09-30T01:55:38.797Z,101444.17
2018-09-30T01:58:07.001Z,101437.09
2018-09-30T02:00:35.175Z,101429.27
2018-09-30T02:03:03.390Z,101429.88
2018-09-30T02:05:31.565Z,101432.14
2018-09-30T02:07:59.769Z,101427.59
2018-09-30T02:10:28.004Z,101424.86
2018-09-30T02:12:56.189Z,101424.73
2018-09-30T02:15:24.364Z,101418.69
2018-09-30T02:17:52.576Z,101414.75
2018-09-30T02:20:20.763Z,101421.72
2018-09-30T02:22:48.959Z,101419.77
2018-09-30T02:25:17.117Z,101419.63
2018-09-30T02:27:45.308Z,101419.91
2018-09-30T02:30:13.497Z,101416.22
2018-09-30T02:32:41.673Z,101406.93
2018-09-30T02:35:09.863Z,101412.14
2018-09-30T02:37:38.057Z,101415.09
2018-09-30T02:40:06.269Z,101414.66
2018-09-30T02:42:34.465Z,101407.66
2018-09-30T02:45:02.665Z,101397.76
2018-09-30T02:47:30.856Z,101402.07
2018-09-30T02:49:59.032Z,101395.87
2018-09-30T02:52:27.205Z,101390.84
2018-09-30T02:54:55.393Z,101382.30
2018-09-30T02:57:23.564Z,101382.94
2018-09-30T02:59:51.776Z,101381.55
2018-09-30T03:02:20.040Z,101378.95
2018-09-30T03:04:48.231Z,101376.34
2018-09-30T03:07:21.663Z,101372.34
2018-09-30T03:09:49.844Z,101377.67
2018-09-30T03:12:18.039Z,101367.53
2018-09-30T03:14:46.228Z,101373.78
2018-09-30T03:17:14.424Z,101362.13
2018-09-30T03:19:42.600Z,101362.95
2018-09-30T03:22:10.821Z,101366.18
2018-09-30T03:24:38.992Z,101358.31
2018-09-30T03:27:07.176Z,101352.20
2018-09-30T03:29:35.371Z,101349.72
2018-09-30T03:32:03.548Z,101351.32
2018-09-30T03:34:31.774Z,101339.75
2018-09-30T03:36:59.967Z,101343.50
2018-09-30T03:39:28.214Z,101343.02
2018-09-30T03:41:56.404Z,101333.80
2018-09-30T03:44:24.587Z,101340.40
2018-09-30T03:46:52.775Z,101340.88
2018-09-30T03:49:20.960Z,101339.90
2018-09-30T03:51:49.155Z,101345.36
2018-09-30T03:54:17.325Z,101348.48
2018-09-30T03:56:45.610Z,101342.02
2018-09-30T03:59:13.731Z,101344.91
2018-09-30T04:01:41.914Z,101340.95
2018-09-30T04:04:10.104Z,101336.41
2018-09-30T04:06:38.330Z,101334.50
2018-09-30T04:09:07.867Z,101331.93
2018-09-30T04:11:36.048Z,101322.66
2018-09-30T04:14:04.261Z,101316.27
2018-09-30T04:16:32.469Z,101317.36
2018-09-30T04:19:00.661Z,101315.91
2018-09-30T04:21:28.840Z,101311.47
2018-09-30T04:24:02.696Z,101307.71
2018-09-30T04:26:30.888Z,101310.52
2018-09-30T04:28:59.076Z,101306.12
2018-09-30T04:31:27.267Z,101306.16
2018-09-30T04:33:55.450Z,101304.61
2018-09-30T04:36:23.626Z,101295.09
2018-09-30T04:38:51.832Z,101294.22
2018-09-30T04:41:20.032Z,101286.28
2018-09-30T04:43:48.235Z,101289.95
2018-09-30T04:46:16.807Z,101293.67
2018-09-30T04:48:44.980Z,101289.75
2018-09-30T04:51:13.175Z,101285.05
2018-09-30T04:53:41.410Z,101278.78
2018-09-30T04:56:09.608Z,101282.37
2018-09-30T04:58:37.827Z,101283.64
2018-09-30T05:01:06.017Z,101281.03
2018-09-30T05:03:34.200Z,101285.06
2018-09-30T05:06:02.392Z,101285.02
2018-09-30T05:08:30.677Z,101283.94
2018-09-30T05:10:58.958Z,101290.48
2018-09-30T05:13:28.256Z,101290.67
2018-09-30T05:15:57.558Z,101286.98
2018-09-30T05:18:25.768Z,101277.67
2018-09-30T05:20:53.991Z,101276.55
2018-09-30T05:23:22.176Z,101267.63
2018-09-30T05:25:50.372Z,101278.15
2018-09-30T05:28:18.560Z,101264.91
2018-09-30T05:30:46.809Z,101269.45
2018-09-30T05:33:14.999Z,101264.32
2018-09-30T05:35:43.211Z,101258.32
2018-09-30T05:38:11.406Z,101259.98
2018-09-30T05:40:39.616Z,101250.49
2018-09-30T05:43:07.805Z,101249.75
2018-09-30T05:45:37.119Z,101244.37
2018-09-30T05:48:05.411Z,101241.82
2018-09-30T05:50:38.519Z,101238.34
2018-09-30T05:53:07.812Z,101232.87
2018-09-30T05:55:36.097Z,101234.46
2018-09-30T05:58:04.427Z,101234.16
2018-09-30T06:00:32.700Z,101241.22
2018-09-30T06:03:00.912Z,101247.70
2018-09-30T06:05:29.116Z,101253.59
2018-09-30T06:07:57.313Z,101260.71
2018-09-30T06:10:25.521Z,101260.63
2018-09-30T06:12:54.756Z,101255.81
2018-09-30T06:15:23.039Z,101254.76
2018-09-30T06:17:51.312Z,101256.23
2018-09-30T06:20:25.440Z,101260.73
2018-09-30T06:22:53.836Z,101252.23
2018-09-30T06:25:22.114Z,101258.83
2018-09-30T06:27:50.404Z,101252.92
2018-09-30T06:30:18.658Z,101257.00
2018-09-30T06:32:46.896Z,101255.14
2018-09-30T06:35:15.161Z,101258.40
2018-09-30T06:37:47.548Z,101251.80
2018-09-30T06:40:15.750Z,101260.98
2018-09-30T06:42:44.984Z,101262.67
2018-09-30T06:45:14.298Z,101259.42
2018-09-30T06:47:42.568Z,101256.34
2018-09-30T06:50:10.850Z,101255.70
2018-09-30T06:52:39.142Z,101256.44
2018-09-30T06:55:07.335Z,101253.92
2018-09-30T06:57:36.648Z,101257.24
2018-09-30T07:00:04.842Z,101248.36
2018-09-30T07:02:33.037Z,101248.48
2018-09-30T07:05:01.363Z,101250.91
2018-09-30T07:07:29.406Z,101256.17
2018-09-30T07:09:57.592Z,101259.69
2018-09-30T07:12:25.780Z,101262.91
2018-09-30T07:14:54.051Z,101255.62
2018-09-30T07:17:22.509Z,101255.58
2018-09-30T07:19:50.730Z,101261.70
2018-09-30T07:22:18.970Z,101256.50
2018-09-30T07:24:47.091Z,101260.52
2018-09-30T07:27:15.388Z,101256.14
2018-09-30T07:29:43.589Z,101258.97
2018-09-30T07:32:11.936Z,101256.11
2018-09-30T07:34:40.107Z,101259.66
2018-09-30T07:37:08.304Z,101255.84
2018-09-30T07:39:36.600Z,101261.08
2018-09-30T07:42:04.836Z,101254.22
2018-09-30T07:44:35.049Z,101251.56
2018-09-30T07:47:03.311Z,101252.07
2018-09-30T07:49:31.521Z,101245.10
2018-09-30T07:51:59.775Z,101248.90
2018-09-30T07:54:27.969Z,101245.90
2018-09-30T07:56:56.460Z,101232.34
2018-09-30T07:59:24.676Z,101227.72
2018-09-30T08:01:52.910Z,101229.50
2018-09-30T08:04:21.101Z,101232.41
2018-09-30T08:06:49.312Z,101224.89
2018-09-30T08:09:17.517Z,101222.54
2018-09-30T08:11:45.716Z,101226.59
2018-09-30T08:14:13.916Z,101221.31
2018-09-30T08:16:42.191Z,101224.17
2018-09-30T08:19:10.332Z,101218.61
2018-09-30T08:21:38.541Z,101221.52
2018-09-30T08:24:06.438Z,101218.77
2018-09-30T08:26:34.584Z,101223.73
2018-09-30T08:29:02.813Z,101216.87
2018-09-30T08:31:31.124Z,101219.28
2018-09-30T08:33:59.773Z,101213.41
2018-09-30T08:36:27.995Z,101212.77
2018-09-30T08:38:56.220Z,101214.80
2018-09-30T08:41:24.380Z,101215.55
2018-09-30T08:43:52.630Z,101211.81
2018-09-30T08:46:20.872Z,101209.69
2018-09-30T08:48:49.072Z,101212.66
2018-09-30T08:51:17.324Z,101211.87
2018-09-30T08:53:45.564Z,101214.41
2018-09-30T08:56:13.823Z,101204.23
2018-09-30T08:58:41.944Z,101200.37
2018-09-30T09:01:10.137Z,101203.22
2018-09-30T09:03:38.340Z,101207.74
2018-09-30T09:06:06.583Z,101199.00
2018-09-30T09:08:34.817Z,101200.08
2018-09-30T09:11:03.013Z,101200.54
2018-09-30T09:13:31.299Z,101199.55
2018-09-30T09:15:59.500Z,101195.09
2018-09-30T09:18:27.764Z,101189.61
2018-09-30T09:20:56.097Z,101185.08
2018-09-30T09:23:24.595Z,101183.16
2018-09-30T09:25:52.835Z,101182.91
2018-09-30T09:28:21.039Z,101175.23
2018-09-30T09:30:49.321Z,101175.95
2018-09-30T09:33:17.528Z,101171.94
2018-09-30T09:35:45.712Z,101174.82
2018-09-30T09:38:13.930Z,101170.63
2018-09-30T09:40:42.151Z,101167.18
2018-09-30T09:43:10.362Z,101156.44
2018-09-30T09:45:38.541Z,101157.22
2018-09-30T09:48:06.729Z,101150.44
2018-09-30T09:50:34.916Z,101149.37
2018-09-30T09:53:03.132Z,101148.06
2018-09-30T09:55:31.361Z,101141.72
2018-09-30T09:57:59.664Z,101144.86
2018-09-30T10:00:30.807Z,101142.45
2018-09-30T10:02:59.135Z,101133.28
2018-09-30T10:05:27.348Z,101124.82
2018-09-30T10:07:55.515Z,101118.09
2018-09-30T10:10:23.712Z,101121.67
2018-09-30T10:12:51.904Z,101123.41
2018-09-30T10:15:20.115Z,101117.22
2018-09-30T10:17:48.305Z,101118.68
2018-09-30T10:20:16.473Z,101121.20
2018-09-30T10:22:44.656Z,101121.75
2018-09-30T10:25:12.844Z,101114.03
2018-09-30T10:27:41.111Z,101116.56
2018-09-30T10:30:09.291Z,101112.38
2018-09-30T10:32:37.495Z,101109.98
2018-09-30T10:35:05.800Z,101114.68
2018-09-30T10:37:34.000Z,101100.23
2018-09-30T10:40:02.212Z,101100.39
2018-09-30T10:42:31.080Z,101097.06
2018-09-30T10:44:59.277Z,101090.45
2018-09-30T10:47:27.465Z,101091.50
2018-09-30T10:49:55.660Z,101089.38
2018-09-30T10:52:23.992Z,101086.14
2018-09-30T10:54:52.180Z,101082.85
2018-09-30T10:57:20.382Z,101083.30
2018-09-30T10:59:48.580Z,101069.23
2018-09-30T11:02:16.760Z,101071.41
2018-09-30T11:04:44.959Z,101068.63
2018-09-30T11:07:13.156Z,101061.39
2018-09-30T11:09:41.434Z,101056.09
2018-09-30T11:12:09.588Z,101047.20
2018-09-30T11:14:37.789Z,101053.94
2018-09-30T11:17:06.372Z,101046.55
2018-09-30T11:19:34.568Z,101043.31
2018-09-30T11:22:02.760Z,101038.13
2018-09-30T11:24:30.942Z,101035.02
2018-09-30T11:26:59.139Z,101026.28
2018-09-30T11:29:27.350Z,101020.70
2018-09-30T11:31:55.630Z,101004.84
2018-09-30T11:34:23.748Z,100998.50
2018-09-30T11:36:51.944Z,100997.76
2018-09-30T11:39:20.128Z,101007.17
2018-09-30T11:41:48.319Z,100999.69
2018-09-30T11:44:16.534Z,100999.73
2018-09-30T11:46:44.695Z,101003.08
2018-09-30T11:49:12.884Z,100990.07
2018-09-30T11:51:41.081Z,100989.95
2018-09-30T11:54:09.407Z,100991.76
2018-09-30T11:56:37.593Z,100993.28
2018-09-30T11:59:05.817Z,100994.74
2018-09-30T12:01:34.013Z,100994.53
2018-09-30T12:04:02.457Z,100994.46
2018-09-30T12:06:30.644Z,100980.67
2018-09-30T12:08:58.833Z,100962.75
2018-09-30T12:11:27.084Z,100956.27
2018-09-30T12:13:55.256Z,100963.13
2018-09-30T12:16:23.448Z,100953.02
2018-09-30T12:18:51.687Z,100953.70
2018-09-30T12:21:19.829Z,100944.67
2018-09-30T12:23:48.009Z,100937.34
2018-09-30T12:26:16.200Z,100934.91
2018-09-30T12:28:44.417Z,100935.72
2018-09-30T12:31:12.638Z,100932.67
2018-09-30T12:33:40.825Z,100929.74
2018-09-30T12:36:09.080Z,100923.30
2018-09-30T12:38:37.424Z,100923.87
2018-09-30T12:41:05.724Z,100921.87
2018-09-30T12:43:33.918Z,100918.17
2018-09-30T12:46:02.111Z,100914.38
2018-09-30T12:48:30.312Z,100901.13
2018-09-30T12:50:58.523Z,100898.67
2018-09-30T12:53:26.716Z,100901.98
2018-09-30T12:55:54.937Z,100897.59
2018-09-30T12:58:23.132Z,100887.45
2018-09-30T13:00:51.352Z,100895.66
2018-09-30T13:03:19.548Z,100891.30
2018-09-30T13:05:47.897Z,100891.91
2018-09-30T13:08:16.092Z,100882.58
2018-09-30T13:10:44.272Z,100874.98
2018-09-30T13:13:12.485Z,100870.52
2018-09-30T13:15:40.661Z,100862.42
2018-09-30T13:18:08.877Z,100864.47
2018-09-30T13:20:37.114Z,100861.23
2018-09-30T13:23:05.296Z,100857.80
2018-09-30T13:25:33.519Z,100858.77
2018-09-30T13:28:01.708Z,100858.09
2018-09-30T13:30:29.920Z,100858.77
2018-09-30T13:32:58.117Z,100854.00
2018-09-30T13:35:26.326Z,100852.07
2018-09-30T13:37:54.507Z,100846.98
2018-09-30T13:40:22.730Z,100848.20
2018-09-30T13:42:50.897Z,100848.06
2018-09-30T13:45:19.128Z,100844.96
2018-09-30T13:47:47.329Z,100848.40
2018-09-30T13:50:15.573Z,100840.41
2018-09-30T13:52:43.768Z,100839.95
2018-09-30T13:55:11.983Z,100846.84
2018-09-30T13:57:40.184Z,100844.84
2018-09-30T14:00:08.884Z,100843.66
2018-09-30T14:02:37.160Z,100844.95
2018-09-30T14:05:05.573Z,100842.15
2018-09-30T14:07:33.781Z,100839.03
2018-09-30T14:10:01.976Z,100836.56
2018-09-30T14:12:30.181Z,100833.44
2018-09-30T14:14:58.852Z,100831.38
2018-09-30T14:17:27.953Z,100827.96
2018-09-30T14:19:56.361Z,100830.26
2018-09-30T14:22:25.024Z,100822.97
2018-09-30T14:24:53.209Z,100818.10
2018-09-30T14:27:21.598Z,100821.77
2018-09-30T14:29:49.600Z,100818.48
2018-09-30T14:32:17.800Z,100817.65
2018-09-30T14:34:46.005Z,100820.45
2018-09-30T14:37:14.217Z,100821.18
2018-09-30T14:39:42.489Z,100820.44
2018-09-30T14:42:10.715Z,100810.00
2018-09-30T14:44:38.957Z,100811.14
2018-09-30T14:47:07.164Z,100805.63
2018-09-30T14:49:35.353Z,100814.28
2018-09-30T14:52:03.569Z,100815.08
2018-09-30T14:54:31.806Z,100814.83
2018-09-30T14:56:59.960Z,100816.16
2018-09-30T14:59:28.145Z,100811.45
2018-09-30T15:01:56.337Z,100817.20
2018-09-30T15:04:24.541Z,100802.70
2018-09-30T15:06:52.739Z,100802.31
2018-09-30T15:09:20.949Z,100808.89
2018-09-30T15:11:49.144Z,100800.62
2018-09-30T15:14:17.327Z,100796.29
2018-09-30T15:16:45.548Z,100788.77
2018-09-30T15:19:13.743Z,100785.59
2018-09-30T15:21:42.240Z,100786.08
2018-09-30T15:24:10.462Z,100782.40
2018-09-30T15:26:38.667Z,100788.28
2018-09-30T15:29:06.861Z,100782.81
2018-09-30T15:31:35.065Z,100782.19
2018-09-30T15:34:03.268Z,100775.13
2018-09-30T15:36:31.447Z,100775.71
2018-09-30T15:38:59.701Z,100772.93
2018-09-30T15:41:27.887Z,100771.06
2018-09-30T15:43:56.099Z,100771.00
2018-09-30T15:46:25.897Z,100768.13
2018-09-30T15:48:54.092Z,100765.38
2018-09-30T15:51:22.459Z,100758.70
2018-09-30T15:53:50.640Z,100753.95
2018-09-30T15:56:18.831Z,100765.47
2018-09-30T15:58:47.037Z,100758.19
2018-09-30T16:01:15.259Z,100766.88
2018-09-30T16:03:43.456Z,100761.25
2018-09-30T16:06:11.674Z,100763.55
2018-09-30T16:08:39.878Z,100759.07
2018-09-30T16:11:08.057Z,100759.34
2018-09-30T16:13:36.235Z,100764.86
2018-09-30T16:16:04.448Z,100758.05
2018-09-30T16:18:32.655Z,100760.09
2018-09-30T16:21:00.839Z,100761.94
2018-09-30T16:23:29.026Z,100768.27
2018-09-30T16:25:57.212Z,100766.11
2018-09-30T16:28:25.484Z,100762.48
2018-09-30T16:30:53.659Z,100768.16
2018-09-30T16:33:21.851Z,100768.33
2018-09-30T16:35:50.056Z,100769.94
2018-09-30T16:38:18.246Z,100769.86
2018-09-30T16:40:46.445Z,100773.96
2018-09-30T16:43:14.632Z,100773.37
2018-09-30T16:45:42.823Z,100773.94
2018-09-30T16:48:11.043Z,100776.67
2018-09-30T16:50:39.286Z,100777.98
2018-09-30T16:53:07.426Z,100778.16
2018-09-30T16:55:35.616Z,100777.98
2018-09-30T16:58:03.892Z,100792.39
2018-09-30T17:00:32.131Z,100791.78
2018-09-30T17:03:00.335Z,100791.77
2018-09-30T17:05:28.999Z,100796.15
2018-09-30T17:07:57.183Z,100789.09
2018-09-30T17:10:25.372Z,100791.58
2018-09-30T17:12:53.557Z,100791.80
2018-09-30T17:15:21.748Z,100796.58
2018-09-30T17:17:49.951Z,100795.94
2018-09-30T17:20:18.136Z,100799.42
2018-09-30T17:22:46.367Z,100805.77
2018-09-30T17:25:14.580Z,100802.05
2018-09-30T17:27:42.771Z,100804.30
2018-09-30T17:30:10.969Z,100817.55
2018-09-30T17:32:39.166Z,100824.28
2018-09-30T17:35:07.396Z,100827.95
2018-09-30T17:37:35.621Z,100831.08
2018-09-30T17:40:03.836Z,100829.35
2018-09-30T17:42:32.090Z,100830.96
2018-09-30T17:45:00.284Z,100825.86
2018-09-30T17:47:28.532Z,100831.95
2018-09-30T17:49:56.710Z,100833.81
2018-09-30T17:52:25.076Z,100840.63
2018-09-30T17:54:54.764Z,100846.78
2018-09-30T17:57:23.028Z,100844.77
2018-09-30T17:59:51.512Z,100853.14
2018-09-30T18:02:19.832Z,100843.50
2018-09-30T18:04:48.045Z,100856.56
2018-09-30T18:07:16.244Z,100856.76
2018-09-30T18:09:44.456Z,100848.63
2018-09-30T18:12:12.640Z,100855.22
2018-09-30T18:14:40.860Z,100857.31
2018-09-30T18:17:09.052Z,100857.52
2018-09-30T18:19:37.250Z,100855.83
2018-09-30T18:22:05.437Z,100861.48
2018-09-30T18:24:35.551Z,100854.36
2018-09-30T18:27:04.570Z,100860.97
2018-09-30T18:29:32.772Z,100854.32
2018-09-30T18:32:00.972Z,100858.83
2018-09-30T18:34:29.183Z,100852.62
2018-09-30T18:36:57.385Z,100856.02
2018-09-30T18:39:25.625Z,100857.80
2018-09-30T18:41:53.828Z,100854.75
2018-09-30T18:44:22.025Z,100857.64
2018-09-30T18:46:50.221Z,100855.66
2018-09-30T18:49:19.215Z,100855.99
2018-09-30T18:51:47.533Z,100851.08
2018-09-30T18:54:15.763Z,100854.49
2018-09-30T18:56:44.019Z,100857.23
2018-09-30T18:59:12.328Z,100848.97
2018-09-30T19:01:40.535Z,100847.27
2018-09-30T19:04:08.754Z,100854.28
2018-09-30T19:06:36.967Z,100848.23
2018-09-30T19:09:07.492Z,100850.44
2018-09-30T19:11:35.718Z,100853.95
2018-09-30T19:14:04.005Z,100855.77
2018-09-30T19:16:32.453Z,100854.67
2018-09-30T19:19:00.667Z,100858.55
2018-09-30T19:21:29.056Z,100860.27
2018-09-30T19:23:57.313Z,100863.31
2018-09-30T19:26:25.492Z,100858.78
2018-09-30T19:28:53.764Z,100863.50
2018-09-30T19:31:21.985Z,100859.12
2018-09-30T19:33:50.223Z,100862.20
2018-09-30T19:36:18.501Z,100869.91
2018-09-30T19:38:46.652Z,100860.45
2018-09-30T19:41:14.860Z,100868.38
2018-09-30T19:43:43.093Z,100871.86
2018-09-30T19:46:11.333Z,100865.80
2018-09-30T19:48:39.560Z,100872.00
2018-09-30T19:51:07.735Z,100870.25
2018-09-30T19:53:35.959Z,100871.49
2018-09-30T19:56:04.190Z,100874.99
2018-09-30T19:58:32.449Z,100869.34
2018-09-30T20:01:00.702Z,100867.66
2018-09-30T20:03:28.892Z,100869.82
2018-09-30T20:05:57.082Z,100864.14
2018-09-30T20:08:25.316Z,100868.48
2018-09-30T20:10:53.498Z,100875.91
2018-09-30T20:13:21.688Z,100870.75
2018-09-30T20:15:49.953Z,100876.81
2018-09-30T20:18:18.181Z,100880.70
2018-09-30T20:20:46.421Z,100875.98
2018-09-30T20:23:14.612Z,100877.75
2018-09-30T20:25:42.816Z,100867.32
2018-09-30T20:28:11.012Z,100861.28
2018-09-30T20:30:39.320Z,100859.95
2018-09-30T20:33:07.604Z,100863.47
2018-09-30T20:35:35.828Z,100860.80
2018-09-30T20:38:04.050Z,100861.75
2018-09-30T20:40:36.244Z,100859.97
2018-09-30T20:43:04.435Z,100849.59
2018-09-30T20:45:32.648Z,100859.13
2018-09-30T20:48:00.861Z,100860.02
2018-09-30T20:50:29.056Z,100859.15
2018-09-30T20:52:57.241Z,100853.52
2018-09-30T20:55:25.433Z,100855.24
2018-09-30T20:57:53.643Z,100855.28
2018-09-30T21:00:21.859Z,100857.39
2018-09-30T21:02:50.211Z,100857.82
2018-09-30T21:05:25.570Z,100851.35
2018-09-30T21:07:54.408Z,100853.97
2018-09-30T21:10:22.623Z,100853.97
2018-09-30T21:12:50.872Z,100854.81
2018-09-30T21:15:19.084Z,100858.30
2018-09-30T21:17:47.358Z,100850.52
2018-09-30T21:20:15.544Z,100851.36
2018-09-30T21:22:43.784Z,100857.00
2018-09-30T21:25:12.004Z,100858.28
2018-09-30T21:27:40.233Z,100850.49
2018-09-30T21:30:08.518Z,100843.57
2018-09-30T21:32:36.712Z,100839.66
2018-09-30T21:35:04.919Z,100847.03
2018-09-30T21:37:33.110Z,100846.16
2018-09-30T21:40:01.436Z,100848.33
2018-09-30T21:42:29.632Z,100845.30
2018-09-30T21:44:57.843Z,100835.77
2018-09-30T21:47:26.044Z,100835.77
2018-09-30T21:49:54.236Z,100843.55
2018-09-30T21:52:22.424Z,100841.83
2018-09-30T21:54:50.667Z,100838.39
2018-09-30T21:57:18.844Z,100837.50
2018-09-30T21:59:47.063Z,100837.44
2018-09-30T22:02:15.280Z,100839.66
2018-09-30T22:04:43.521Z,100842.70
2018-09-30T22:07:11.712Z,100842.26
2018-09-30T22:09:40.008Z,100845.69
2018-09-30T22:12:08.197Z,100844.83
2018-09-30T22:14:36.391Z,100843.13
2018-09-30T22:17:04.605Z,100849.14
2018-09-30T22:19:32.791Z,100841.80
2018-09-30T22:22:01.005Z,100846.56
2018-09-30T22:24:29.188Z,100840.52
2018-09-30T22:26:57.593Z,100849.64
2018-09-30T22:29:25.808Z,100854.80
2018-09-30T22:31:54.035Z,100849.17
2018-09-30T22:34:22.236Z,100845.30
2018-09-30T22:36:50.446Z,100845.30
2018-09-30T22:39:18.660Z,100841.84
2018-09-30T22:41:46.910Z,100838.38
2018-09-30T22:44:15.116Z,100841.41
2018-09-30T22:46:43.333Z,100838.83
2018-09-30T22:49:11.572Z,100834.05
2018-09-30T22:51:39.772Z,100838.81
2018-09-30T22:54:07.985Z,100839.23
2018-09-30T22:56:36.207Z,100830.58
2018-09-30T22:59:04.417Z,100827.98
2018-09-30T23:01:32.603Z,100832.34
2018-09-30T23:04:00.812Z,100831.89
2018-09-30T23:06:29.020Z,100832.31
2018-09-30T23:08:57.302Z,100840.13
2018-09-30T23:11:25.483Z,100839.23
2018-09-30T23:13:53.703Z,100844.87
2018-09-30T23:16:21.900Z,100844.45
2018-09-30T23:18:50.202Z,100849.63
2018-09-30T23:21:18.387Z,100849.21
2018-09-30T23:23:46.597Z,100852.23
2018-09-30T23:26:14.791Z,100851.36
2018-09-30T23:28:43.012Z,100842.27
2018-09-30T23:31:11.182Z,100843.14
2018-09-30T23:33:39.356Z,100844.45
2018-09-30T23:36:07.564Z,100844.45
2018-09-30T23:38:35.772Z,100844.43
2018-09-30T23:41:03.996Z,100840.56
2018-09-30T23:43:32.231Z,100839.66
2018-09-30T23:46:00.853Z,100842.69
2018-09-30T23:48:29.061Z,100839.69
2018-09-30T23:50:57.316Z,100834.05
2018-09-30T23:53:25.505Z,100837.09
2018-09-30T23:55:53.736Z,100837.52
2018-09-30T23:58:21.912Z,100839.23
